Time;durP1;ratioP1;P1;durP2;ratioP2;P2;SDS_P1;SDS_P2;PMS_P1;PMS_P2;Temp;Humidity;BMP_temperature;BMP_pressure;BME280_temperature;BME280_humidity;BME280_pressure;Samples;Min_cycle;Max_cycle;Signal;HPM_P1;HPM_P2
2022/01/30 00:01:44;;;;;;;5.58;2.50;;;;;;;-1.02;58.79;99676.64;1782315;79;20937;-77
2022/01/30 00:04:11;;;;;;;6.28;2.60;;;;;;;-1.07;58.73;99678.57;1791376;79;21027;-76
2022/01/30 00:06:37;;;;;;;6.35;2.00;;;;;;;-1.12;58.87;99676.65;1787275;78;21079;-78
2022/01/30 00:09:08;;;;;;;5.30;2.70;;;;;;;-1.17;59.08;99682.84;1798295;79;20928;-77
2022/01/30 00:11:36;;;;;;;6.20;2.75;;;;;;;-1.21;59.20;99677.42;1789742;79;22246;-77
2022/01/30 00:14:04;;;;;;;5.90;2.55;;;;;;;-1.25;59.11;99675.04;1760985;80;21369;-77
2022/01/30 00:16:35;;;;;;;6.05;2.58;;;;;;;-1.29;59.18;99670.42;1765642;79;21023;-77
2022/01/30 00:24:03;;;;;;;4.95;2.35;;;;;;;-1.36;59.62;99653.90;1765533;79;22183;-77
2022/01/30 00:26:30;;;;;;;4.83;2.35;;;;;;;-1.41;59.81;99646.34;1771923;79;20961;-77
2022/01/30 00:28:57;;;;;;;3.62;2.10;;;;;;;-1.47;59.99;99644.83;1783926;79;21039;-77
2022/01/30 00:31:25;;;;;;;5.70;2.17;;;;;;;-1.45;60.17;99635.28;1771829;79;20952;-77
2022/01/30 00:33:53;;;;;;;4.75;2.62;;;;;;;-1.47;60.35;99628.00;1753440;80;21359;-77
2022/01/30 00:36:20;;;;;;;4.87;2.70;;;;;;;-1.48;60.50;99620.30;1788490;79;21798;-77
2022/01/30 00:38:46;;;;;;;5.70;2.40;;;;;;;-1.52;60.55;99600.17;1792901;79;21026;-77
2022/01/30 00:41:13;;;;;;;5.25;2.45;;;;;;;-1.52;60.68;99607.94;1753281;80;20981;-77
2022/01/30 00:43:39;;;;;;;6.22;2.70;;;;;;;-1.54;60.80;99591.63;1810047;79;21496;-77
2022/01/30 00:46:06;;;;;;;5.30;2.40;;;;;;;-1.56;60.83;99589.54;1816444;79;20949;-77
2022/01/30 00:48:32;;;;;;;6.25;2.90;;;;;;;-1.59;60.91;99584.95;1791422;79;21789;-77
2022/01/30 00:51:00;;;;;;;7.60;3.00;;;;;;;-1.62;60.95;99569.10;1803480;79;20976;-78
2022/01/30 00:53:26;;;;;;;4.70;2.60;;;;;;;-1.64;61.09;99568.34;1798809;78;21022;-77
2022/01/30 00:55:53;;;;;;;6.08;2.80;;;;;;;-1.66;61.21;99547.27;1765653;79;20976;-77
2022/01/30 00:58:19;;;;;;;6.53;2.80;;;;;;;-1.68;61.38;99547.80;1778295;79;21665;-77
2022/01/30 01:00:46;;;;;;;5.50;2.98;;;;;;;-1.71;61.46;99545.35;1809160;78;21746;-77
2022/01/30 01:03:12;;;;;;;6.28;2.65;;;;;;;-1.73;61.56;99537.66;1784195;79;20936;-77
2022/01/30 01:05:39;;;;;;;6.78;3.17;;;;;;;-1.77;61.66;99527.02;1765978;79;21055;-77
2022/01/30 01:08:14;;;;;;;6.78;3.00;;;;;;;-1.79;61.70;99518.03;1766889;79;21001;-77
2022/01/30 01:10:47;;;;;;;6.78;3.17;;;;;;;-1.79;61.77;99506.39;1781005;80;21035;-77
2022/01/30 01:23:44;;;;;;;6.90;3.72;;;;;;;-1.80;61.77;99467.17;1787927;79;20965;-76
2022/01/30 01:26:09;;;;;;;6.90;3.30;;;;;;;-1.81;61.85;99457.73;1783851;79;21860;-77
2022/01/30 01:28:37;;;;;;;7.42;3.30;;;;;;;-1.82;61.92;99457.34;1793074;79;21072;-77
2022/01/30 01:31:03;;;;;;;4.65;2.98;;;;;;;-1.84;62.03;99450.08;1783869;80;20925;-77
2022/01/30 01:36:12;;;;;;;7.10;2.92;;;;;;;-1.87;62.38;99429.97;1790942;79;20946;-76
2022/01/30 01:38:39;;;;;;;5.85;2.90;;;;;;;-1.90;62.66;99421.90;1784000;79;21815;-77
2022/01/30 01:41:07;;;;;;;4.75;2.92;;;;;;;-1.93;62.83;99423.76;1803447;79;21072;-77
2022/01/30 01:43:35;;;;;;;5.50;2.98;;;;;;;-1.98;63.11;99420.09;1807551;79;20917;-77
2022/01/30 01:46:02;;;;;;;5.95;3.08;;;;;;;-1.99;63.25;99409.36;1797842;79;21076;-77
2022/01/30 01:48:34;;;;;;;5.58;3.10;;;;;;;-2.00;63.28;99400.38;1809600;79;21479;-76
2022/01/30 01:51:07;;;;;;;4.22;2.58;;;;;;;-2.00;63.30;99392.16;1767283;80;21846;-77
2022/01/30 01:53:33;;;;;;;6.67;3.22;;;;;;;-2.00;63.29;99385.69;1765634;80;20952;-76
2022/01/30 01:56:00;;;;;;;6.28;3.02;;;;;;;-2.00;63.32;99380.52;1785046;79;20996;-78
2022/01/30 01:58:27;;;;;;;4.90;2.95;;;;;;;-2.00;63.36;99377.92;1790584;79;21042;-77
2022/01/30 02:01:01;;;;;;;6.25;3.17;;;;;;;-2.01;63.33;99376.25;1784628;79;21030;-77
2022/01/30 02:03:29;;;;;;;5.15;3.00;;;;;;;-2.01;63.15;99368.48;1766482;80;21056;-77
2022/01/30 02:06:00;;;;;;;6.83;3.05;;;;;;;-2.00;63.12;99361.56;1783867;79;20937;-77
2022/01/30 02:13:50;;;;;;;6.35;3.12;;;;;;;-1.97;62.99;99351.06;1788577;79;21509;-77
2022/01/30 02:24:28;;;;;;;7.58;3.40;;;;;;;-1.95;62.81;99319.48;1790772;79;21009;-77
2022/01/30 02:26:47;;;;;;;7.33;3.30;;;;;;;-1.96;62.70;99312.63;1780065;79;21036;-77
2022/01/30 02:29:14;;;;;;;6.22;3.20;;;;;;;-1.98;62.49;99300.22;1756003;79;21781;-77
2022/01/30 02:31:42;;;;;;;5.90;3.45;;;;;;;-1.96;62.51;99284.17;1782245;79;20969;-77
2022/01/30 02:34:09;;;;;;;7.20;3.90;;;;;;;-1.96;62.32;99274.66;1767335;80;20949;-77
2022/01/30 02:36:48;;;;;;;8.40;5.50;;;;;;;-1.96;62.27;99273.36;1793352;79;20959;-77
2022/01/30 02:39:13;;;;;;;9.78;5.00;;;;;;;-1.95;62.16;99268.57;1786519;79;20972;-77
2022/01/30 02:41:40;;;;;;;8.63;4.55;;;;;;;-1.93;62.13;99263.31;1764185;79;21818;-78
2022/01/30 02:44:13;;;;;;;8.78;3.70;;;;;;;-1.94;62.21;99243.53;1810580;79;20921;-77
2022/01/30 02:46:40;;;;;;;11.38;5.12;;;;;;;-1.96;62.14;99247.48;1762326;79;21487;-77
2022/01/30 02:49:24;;;;;;;8.68;4.22;;;;;;;-1.95;62.22;99245.73;1771773;78;21017;-77
2022/01/30 02:51:35;;;;;;;13.80;6.35;;;;;;;-1.95;62.09;99242.69;1778525;79;20852;-78
2022/01/30 02:54:03;;;;;;;9.03;5.53;;;;;;;-1.95;62.02;99230.20;1784317;79;22445;-78
2022/01/30 02:56:34;;;;;;;8.45;4.42;;;;;;;-1.95;62.15;99215.52;1781014;79;20928;-77
2022/01/30 02:59:00;;;;;;;7.45;4.33;;;;;;;-1.94;62.21;99212.02;1782117;79;21421;-78
2022/01/30 03:01:26;;;;;;;8.98;4.25;;;;;;;-1.95;62.19;99203.88;1809724;79;22481;-78
2022/01/30 03:03:53;;;;;;;6.78;4.50;;;;;;;-1.94;62.16;99206.84;1799665;78;20852;-78
2022/01/30 03:06:19;;;;;;;8.75;4.05;;;;;;;-1.93;62.10;99195.61;1785326;79;22460;-78
2022/01/30 03:08:46;;;;;;;6.33;2.83;;;;;;;-1.91;62.20;99191.20;1788989;79;21307;-78
2022/01/30 03:11:13;;;;;;;6.85;3.02;;;;;;;-1.90;62.21;99179.09;1797056;77;21461;-78
2022/01/30 03:13:40;;;;;;;6.35;3.15;;;;;;;-1.88;62.19;99177.27;1790059;79;21421;-79
2022/01/30 03:16:08;;;;;;;5.22;2.90;;;;;;;-1.88;62.09;99175.97;1757239;80;21019;-78
2022/01/30 03:18:36;;;;;;;7.20;2.77;;;;;;;-1.87;62.22;99175.89;1745795;79;22615;-79
2022/01/30 03:21:03;;;;;;;5.05;2.75;;;;;;;-1.86;62.12;99172.39;1780159;80;20960;-78
2022/01/30 03:23:30;;;;;;;4.97;2.72;;;;;;;-1.84;62.10;99178.32;1782594;79;20988;-78
2022/01/30 03:25:59;;;;;;;4.42;2.45;;;;;;;-1.83;61.97;99173.55;1793110;79;21122;-78
2022/01/30 03:28:28;;;;;;;5.92;2.70;;;;;;;-1.79;62.01;99164.72;1697162;82;21056;-78
2022/01/30 03:31:00;;;;;;;4.55;2.15;;;;;;;-1.78;61.79;99166.39;1762428;80;21838;-77
2022/01/30 03:33:27;;;;;;;4.70;2.58;;;;;;;-1.74;61.78;99156.72;1768084;80;20997;-78
2022/01/30 03:35:54;;;;;;;5.45;2.70;;;;;;;-1.72;61.73;99154.92;1766075;78;21078;-78
2022/01/30 03:38:22;;;;;;;6.12;2.65;;;;;;;-1.68;61.58;99150.41;1766687;80;20992;-78
2022/01/30 03:40:49;;;;;;;6.55;2.52;;;;;;;-1.66;61.40;99148.59;1773907;80;20946;-78
2022/01/30 03:43:17;;;;;;;4.90;2.33;;;;;;;-1.63;61.36;99136.34;1796139;79;21829;-78
2022/01/30 03:45:44;;;;;;;3.98;2.27;;;;;;;-1.62;61.30;99131.55;1796351;79;20921;-77
2022/01/30 03:48:12;;;;;;;3.87;2.10;;;;;;;-1.60;61.21;99130.17;1792864;79;21035;-79
2022/01/30 03:50:46;;;;;;;4.25;2.00;;;;;;;-1.58;61.06;99121.41;1760248;79;20979;-77
2022/01/30 03:53:13;;;;;;;5.62;2.80;;;;;;;-1.56;61.01;99127.80;1782774;79;20984;-78
2022/01/30 03:55:40;;;;;;;6.03;2.72;;;;;;;-1.54;61.01;99120.81;1776484;79;22383;-78
2022/01/30 03:58:08;;;;;;;6.05;2.30;;;;;;;-1.54;60.87;99111.30;1773905;79;21003;-78
2022/01/30 04:00:36;;;;;;;5.97;2.30;;;;;;;-1.51;60.57;99103.36;1785512;79;21047;-78
2022/01/30 04:03:03;;;;;;;4.65;2.40;;;;;;;-1.50;60.33;99093.37;1792720;79;20951;-78
2022/01/30 04:05:30;;;;;;;4.55;2.47;;;;;;;-1.47;60.52;99092.38;1778780;78;20983;-78
2022/01/30 04:08:01;;;;;;;5.08;2.65;;;;;;;-1.48;60.44;99083.77;1777613;79;22230;-78
2022/01/30 04:10:37;;;;;;;5.55;2.42;;;;;;;-1.47;60.39;99076.84;1785896;79;20940;-78
2022/01/30 04:13:06;;;;;;;4.20;2.27;;;;;;;-1.46;60.00;99085.82;1737889;79;21062;-78
2022/01/30 04:15:37;;;;;;;4.25;2.35;;;;;;;-1.41;60.13;99080.42;1780897;79;21038;-77
2022/01/30 04:18:22;;;;;;;4.62;2.40;;;;;;;-1.41;59.89;99081.72;1770744;79;20959;-78
2022/01/30 04:21:07;;;;;;;5.20;2.30;;;;;;;-1.39;59.93;99066.94;1785849;79;22219;-76
2022/01/30 04:23:36;;;;;;;4.00;2.05;;;;;;;-1.40;59.68;99055.36;1786518;79;20940;-77
2022/01/30 04:26:21;;;;;;;3.77;2.02;;;;;;;-1.38;59.75;99063.42;1802946;79;20992;-78
2022/01/30 04:29:06;;;;;;;6.70;2.77;;;;;;;-1.37;59.79;99046.13;1802719;77;20936;-77
2022/01/30 04:31:35;;;;;;;4.87;2.30;;;;;;;-1.38;60.02;99033.64;1790702;79;21034;-76
2022/01/30 04:34:13;;;;;;;5.15;2.40;;;;;;;-1.39;60.07;99031.97;1758971;79;21842;-78
2022/01/30 04:37:04;;;;;;;4.83;2.30;;;;;;;-1.39;59.98;99028.55;1761458;79;21027;-77
2022/01/30 05:02:23;;;;;;;4.60;2.27;;;;;;;-1.42;59.64;98971.28;1796799;79;22474;-77
2022/01/30 05:05:43;;;;;;;4.53;2.05;;;;;;;-1.40;59.73;98966.84;1787164;79;20976;-77
2022/01/30 05:07:33;;;;;;;4.77;2.00;;;;;;;-1.41;59.43;98965.18;1774886;79;21402;-77
2022/01/30 05:10:14;;;;;;;5.25;2.30;;;;;;;-1.40;59.57;98940.12;1806057;77;21053;-77
2022/01/30 05:12:56;;;;;;;5.20;2.10;;;;;;;-1.40;59.72;98939.66;1774988;78;21398;-77
2022/01/30 05:15:27;;;;;;;4.87;2.50;;;;;;;-1.40;59.71;98943.55;1785967;77;22431;-77
2022/01/30 05:18:06;;;;;;;5.17;2.10;;;;;;;-1.40;59.99;98932.34;1796340;79;20952;-77
2022/01/30 05:20:38;;;;;;;4.65;2.50;;;;;;;-1.41;59.98;98930.22;1802196;79;21052;-77
2022/01/30 05:23:10;;;;;;;4.17;2.27;;;;;;;-1.40;60.02;98928.47;1757433;80;20996;-77
2022/01/30 05:25:39;;;;;;;5.37;2.70;;;;;;;-1.40;60.20;98928.47;1778006;80;21044;-77
2022/01/30 05:28:10;;;;;;;6.15;2.77;;;;;;;-1.42;60.09;98920.78;1780069;80;22838;-77
2022/01/30 05:30:49;;;;;;;5.17;2.45;;;;;;;-1.43;60.16;98906.16;1782898;79;21038;-78
2022/01/30 05:33:17;;;;;;;5.90;2.70;;;;;;;-1.42;60.29;98902.66;1771825;79;21031;-78
2022/01/30 05:35:46;;;;;;;5.92;2.50;;;;;;;-1.42;60.26;98904.41;1771368;79;21030;-78
2022/01/30 05:38:32;;;;;;;4.12;2.50;;;;;;;-1.41;60.08;98906.91;1771351;79;21430;-78
2022/01/30 05:40:59;;;;;;;5.08;2.47;;;;;;;-1.40;60.02;98902.56;1788530;79;22587;-78
2022/01/30 05:43:48;;;;;;;4.62;2.40;;;;;;;-1.38;60.05;98900.72;1774107;78;21380;-77
2022/01/30 05:46:36;;;;;;;6.30;2.58;;;;;;;-1.36;60.07;98912.66;1723121;78;21007;-78
2022/01/30 05:49:11;;;;;;;6.90;2.25;;;;;;;-1.35;60.24;98903.14;1782617;79;21008;-76
2022/01/30 05:51:49;;;;;;;4.50;2.22;;;;;;;-1.37;60.88;98891.57;1732722;79;21486;-77
2022/01/30 05:54:20;;;;;;;4.20;2.50;;;;;;;-1.43;61.71;98881.56;1778093;79;21819;-77
2022/01/30 05:56:47;;;;;;;4.17;2.20;;;;;;;-1.49;62.32;98868.48;1771568;79;20932;-77
2022/01/30 05:59:17;;;;;;;4.35;2.12;;;;;;;-1.54;62.95;98870.95;1790407;79;20987;-78
2022/01/30 06:01:54;;;;;;;4.60;2.20;;;;;;;-1.61;63.32;98857.50;1730849;82;21470;-77
2022/01/30 06:04:21;;;;;;;4.40;2.35;;;;;;;-1.65;63.83;98853.38;1746984;81;21039;-78
2022/01/30 06:06:51;;;;;;;4.45;2.30;;;;;;;-1.65;64.41;98835.27;1783644;79;21838;-77
2022/01/30 06:11:43;;;;;;;5.05;2.20;;;;;;;-1.66;65.25;98825.00;1778119;79;21011;-79
2022/01/30 06:14:11;;;;;;;4.50;2.00;;;;;;;-1.67;65.32;98813.81;1748148;80;21038;-81
2022/01/30 06:16:38;;;;;;;3.98;1.87;;;;;;;-1.67;65.53;98804.75;1783898;78;21035;-80
2022/01/30 06:19:07;;;;;;;4.75;2.45;;;;;;;-1.65;65.83;98813.72;1797644;79;22468;-80
2022/01/30 06:21:45;;;;;;;4.37;1.92;;;;;;;-1.63;66.02;98810.62;1784128;79;21026;-80
2022/01/30 06:24:32;;;;;;;5.15;2.60;;;;;;;-1.61;65.82;98807.48;1782325;79;21000;-78
2022/01/30 06:27:07;;;;;;;3.83;2.33;;;;;;;-1.60;65.81;98806.55;1795185;78;20941;-79
2022/01/30 06:29:50;;;;;;;4.17;2.30;;;;;;;-1.60;65.56;98808.69;1726864;80;27724;-79
2022/01/30 06:32:20;;;;;;;4.87;2.30;;;;;;;-1.61;66.04;98801.84;1758937;79;22237;-78
2022/01/30 06:34:55;;;;;;;4.17;2.02;;;;;;;-1.63;67.53;98804.98;1768653;80;21069;-75
2022/01/30 06:37:31;;;;;;;4.95;2.30;;;;;;;-1.69;68.69;98814.82;1753294;79;21063;-82
2022/01/30 06:40:04;;;;;;;6.50;2.30;;;;;;;-1.75;69.70;98793.97;1762006;80;20958;-76
2022/01/30 06:42:34;;;;;;;9.48;2.40;;;;;;;-1.83;70.82;98801.34;1739720;79;21464;-80
2022/01/30 06:45:20;;;;;;;4.72;2.40;;;;;;;-1.91;76.02;98802.21;1785806;79;21826;-77
2022/01/30 06:47:48;;;;;;;5.42;2.67;;;;;;;-2.02;78.37;98784.68;1754887;79;21028;-76
2022/01/30 06:50:33;;;;;;;5.60;2.85;;;;;;;-2.10;78.89;98781.20;1767806;80;20946;-73
2022/01/30 06:53:20;;;;;;;4.60;2.45;;;;;;;-2.16;77.26;98771.63;1763466;79;21035;-76
2022/01/30 06:56:00;;;;;;;3.55;2.65;;;;;;;-2.21;76.31;98764.59;1720002;79;20988;-82
2022/01/30 06:58:45;;;;;;;4.70;2.67;;;;;;;-2.29;76.18;98762.41;1759712;80;22518;-75
2022/01/30 07:01:30;;;;;;;5.22;2.77;;;;;;;-2.35;76.44;98758.84;1792941;78;20984;-74
2022/01/30 07:03:56;;;;;;;4.55;2.90;;;;;;;-2.38;77.32;98750.79;1749679;81;20990;-76
2022/01/30 07:06:31;;;;;;;4.50;2.67;;;;;;;-2.38;77.77;98749.95;1770851;79;21040;-73
2022/01/30 07:08:57;;;;;;;5.25;2.80;;;;;;;-2.41;78.12;98744.50;1746292;80;20935;-73
2022/01/30 07:11:24;;;;;;;7.15;3.00;;;;;;;-2.44;78.55;98738.17;1776857;79;21822;-72
2022/01/30 07:13:51;;;;;;;4.42;2.45;;;;;;;-2.44;79.08;98730.42;1755844;80;21045;-72
2022/01/30 07:16:17;;;;;;;5.60;2.70;;;;;;;-2.43;79.52;98726.91;1764085;80;21013;-72
2022/01/30 07:18:44;;;;;;;4.87;2.50;;;;;;;-2.46;79.77;98721.08;1766352;80;20982;-72
2022/01/30 07:21:11;;;;;;;4.12;2.50;;;;;;;-2.48;80.01;98725.50;1747683;80;20994;-74
2022/01/30 07:23:37;;;;;;;4.85;2.60;;;;;;;-2.51;80.29;98706.25;1768583;80;21775;-75
2022/01/30 07:26:04;;;;;;;3.70;2.30;;;;;;;-2.55;80.65;98704.77;1755430;80;20946;-75
2022/01/30 07:28:30;;;;;;;3.95;2.45;;;;;;;-2.57;80.96;98707.89;1771956;79;20986;-75
2022/01/30 07:30:57;;;;;;;4.60;2.80;;;;;;;-2.62;81.20;98702.48;1791407;79;20965;-75
2022/01/30 07:33:23;;;;;;;5.05;3.10;;;;;;;-2.61;81.47;98702.03;1791986;79;20979;-73
2022/01/30 07:35:52;;;;;;;4.45;2.85;;;;;;;-2.59;81.69;98693.77;1781959;79;21745;-74
2022/01/30 07:38:20;;;;;;;4.53;2.75;;;;;;;-2.57;81.88;98684.63;1807170;79;21027;-77
2022/01/30 07:40:47;;;;;;;4.92;2.90;;;;;;;-2.54;82.00;98676.70;1793974;77;20995;-72
2022/01/30 07:43:14;;;;;;;3.80;2.37;;;;;;;-2.49;82.12;98663.09;1809011;77;21023;-73
2022/01/30 07:45:43;;;;;;;6.55;3.20;;;;;;;-2.42;82.20;98658.77;1799714;77;21070;-73
2022/01/30 07:48:09;;;;;;;5.90;3.33;;;;;;;-2.35;82.30;98648.95;1782824;79;22456;-73
2022/01/30 07:50:36;;;;;;;5.62;3.42;;;;;;;-2.28;82.29;98647.70;1797157;79;21011;-74
2022/01/30 07:53:03;;;;;;;5.15;3.20;;;;;;;-2.24;82.19;98646.61;1792166;79;21572;-76
2022/01/30 07:55:29;;;;;;;4.00;2.58;;;;;;;-2.21;82.11;98640.45;1797610;79;21064;-75
2022/01/30 07:57:55;;;;;;;5.90;3.37;;;;;;;-2.21;81.81;98632.70;1801833;79;21752;-73
2022/01/30 08:00:22;;;;;;;5.10;3.35;;;;;;;-2.19;82.10;98617.46;1794613;79;22806;-75
2022/01/30 08:02:50;;;;;;;4.83;3.05;;;;;;;-2.14;82.23;98629.66;1792446;77;20979;-74
2022/01/30 08:05:16;;;;;;;5.35;3.12;;;;;;;-2.11;82.21;98607.98;1789661;77;21438;-76
2022/01/30 08:07:43;;;;;;;5.53;3.15;;;;;;;-2.09;82.13;98621.66;1792367;79;20995;-75
2022/01/30 08:10:09;;;;;;;4.30;2.98;;;;;;;-2.08;81.77;98611.69;1787159;79;20960;-75
2022/01/30 08:12:38;;;;;;;5.97;3.13;;;;;;;-2.07;81.63;98604.30;1802857;79;21773;-75
2022/01/30 08:15:06;;;;;;;4.85;3.45;;;;;;;-2.06;81.34;98609.84;1803896;79;21034;-74
2022/01/30 08:17:36;;;;;;;4.80;2.85;;;;;;;-2.04;81.19;98619.63;1811741;77;21473;-75
2022/01/30 08:20:02;;;;;;;4.33;2.92;;;;;;;-2.02;81.15;98597.13;1812172;77;21019;-76
2022/01/30 08:22:31;;;;;;;7.85;4.10;;;;;;;-2.01;81.09;98594.91;1786731;79;21517;-77
2022/01/30 08:24:57;;;;;;;4.95;3.30;;;;;;;-2.00;81.12;98587.52;1786094;79;21607;-77
2022/01/30 08:27:24;;;;;;;4.75;3.00;;;;;;;-1.96;81.18;98584.28;1808494;79;21458;-79
2022/01/30 08:29:51;;;;;;;4.67;2.75;;;;;;;-1.93;81.20;98572.02;1777100;80;21547;-80
2022/01/30 08:32:18;;;;;;;3.72;2.37;;;;;;;-1.90;81.00;98569.72;1764778;80;21016;-76
2022/01/30 08:34:44;;;;;;;4.10;2.70;;;;;;;-1.90;80.86;98578.30;1791958;79;21221;-76
2022/01/30 08:37:11;;;;;;;4.28;2.75;;;;;;;-1.86;80.97;98577.66;1786490;79;21814;-75
2022/01/30 08:39:37;;;;;;;5.72;2.92;;;;;;;-1.83;81.08;98560.22;1792345;79;21016;-75
2022/01/30 08:42:06;;;;;;;5.22;2.87;;;;;;;-1.82;80.91;98555.88;1787933;79;21086;-74
2022/01/30 08:44:33;;;;;;;4.80;2.70;;;;;;;-1.82;80.86;98555.88;1779203;80;21059;-74
2022/01/30 08:47:00;;;;;;;3.85;2.65;;;;;;;-1.82;80.83;98555.41;1793849;77;21011;-76
2022/01/30 08:49:26;;;;;;;6.30;4.30;;;;;;;-1.80;80.84;98543.22;1783989;79;21682;-75
2022/01/30 08:51:53;;;;;;;5.97;3.47;;;;;;;-1.79;81.02;98546.17;1789356;79;21046;-75
2022/01/30 08:54:20;;;;;;;4.28;2.62;;;;;;;-1.77;81.28;98544.78;1781286;79;21050;-75
2022/01/30 08:56:48;;;;;;;4.25;2.85;;;;;;;-1.76;81.55;98532.20;1788851;79;21062;-74
2022/01/30 08:59:14;;;;;;;4.30;2.60;;;;;;;-1.75;81.92;98515.75;1796077;78;21026;-74
2022/01/30 09:01:40;;;;;;;5.85;3.08;;;;;;;-1.75;82.12;98527.41;1779790;79;21795;-77
2022/01/30 09:04:07;;;;;;;5.92;2.85;;;;;;;-1.76;82.25;98530.45;1788071;79;21042;-78
2022/01/30 09:06:38;;;;;;;4.60;3.02;;;;;;;-1.83;82.62;98514.94;1793039;79;21011;-76
2022/01/30 09:09:03;;;;;;;6.05;3.35;;;;;;;-1.88;82.89;98500.13;1781973;79;21043;-75
2022/01/30 09:11:30;;;;;;;4.40;2.77;;;;;;;-1.89;83.06;98501.52;1779457;80;21046;-75
2022/01/30 09:13:56;;;;;;;4.35;3.08;;;;;;;-1.92;83.11;98505.13;1809301;79;21826;-75
2022/01/30 09:16:25;;;;;;;4.60;3.30;;;;;;;-1.93;83.37;98490.52;1788868;79;21022;-74
2022/01/30 09:18:51;;;;;;;4.87;3.30;;;;;;;-1.94;83.57;98490.59;1795604;79;20958;-75
2022/01/30 09:21:20;;;;;;;4.28;3.00;;;;;;;-1.95;83.76;98501.86;1783949;79;21046;-77
2022/01/30 09:23:47;;;;;;;5.78;3.70;;;;;;;-1.94;83.92;98495.30;1809382;79;21011;-76
2022/01/30 09:26:14;;;;;;;5.37;3.40;;;;;;;-1.94;84.06;98482.36;1787812;79;22607;-76
2022/01/30 09:28:40;;;;;;;5.10;3.35;;;;;;;-1.89;84.22;98497.17;1782111;79;21051;-76
2022/01/30 09:31:07;;;;;;;4.95;3.40;;;;;;;-1.88;84.30;98492.36;1806464;77;21553;-74
2022/01/30 09:33:34;;;;;;;4.47;3.22;;;;;;;-1.84;84.41;98495.12;1790577;79;20995;-75
2022/01/30 09:36:01;;;;;;;3.65;2.83;;;;;;;-1.82;84.53;98487.30;1787924;79;20957;-77
2022/01/30 09:38:27;;;;;;;3.65;2.85;;;;;;;-1.81;85.32;98478.15;1793599;78;21792;-76
2022/01/30 09:40:56;;;;;;;5.10;3.10;;;;;;;-1.81;85.79;98477.31;1792695;79;21043;-75
2022/01/30 09:43:23;;;;;;;3.92;3.25;;;;;;;-1.79;85.96;98476.30;1781724;79;21087;-76
2022/01/30 09:45:50;;;;;;;4.08;3.10;;;;;;;-1.77;85.67;98479.62;1784438;78;21024;-74
2022/01/30 09:48:18;;;;;;;4.20;3.08;;;;;;;-1.76;85.58;98479.16;1755620;81;21055;-77
2022/01/30 09:50:44;;;;;;;10.28;6.50;;;;;;;-1.76;85.56;98478.69;1799051;79;22569;-79
2022/01/30 09:53:11;;;;;;;4.78;3.22;;;;;;;-1.74;85.60;98465.22;1790549;79;21421;-77
2022/01/30 09:55:37;;;;;;;5.08;3.33;;;;;;;-1.72;85.60;98469.47;1776074;78;21434;-78
2022/01/30 09:58:05;;;;;;;6.10;4.42;;;;;;;-1.70;85.67;98455.97;1746052;81;21047;-77
2022/01/30 10:00:32;;;;;;;7.20;6.50;;;;;;;-1.68;85.71;98462.71;1772139;79;21046;-72
2022/01/30 10:02:59;;;;;;;5.53;3.35;;;;;;;-1.63;85.78;98465.04;1776241;79;22253;-74
2022/01/30 10:05:27;;;;;;;6.37;3.80;;;;;;;-1.61;85.81;98448.95;1774522;79;21111;-76
2022/01/30 10:07:56;;;;;;;5.50;4.45;;;;;;;-1.59;85.83;98449.68;1793614;79;21012;-77
2022/01/30 10:10:25;;;;;;;5.45;3.80;;;;;;;-1.58;85.93;98446.16;1789314;79;21031;-79
2022/01/30 10:13:08;;;;;;;5.25;4.10;;;;;;;-1.57;85.97;98437.00;1789201;78;21038;-80
2022/01/30 10:15:56;;;;;;;5.00;3.35;;;;;;;-1.56;86.00;98446.89;1779632;79;21067;-79
2022/01/30 10:18:33;;;;;;;5.25;4.30;;;;;;;-1.54;86.04;98449.78;1784208;79;21482;-79
2022/01/30 10:21:01;;;;;;;4.72;3.20;;;;;;;-1.51;86.07;98439.70;1787195;79;21015;-76
2022/01/30 10:23:33;;;;;;;6.10;3.87;;;;;;;-1.48;86.10;98433.86;1773573;79;21059;-78
2022/01/30 10:26:01;;;;;;;7.37;4.12;;;;;;;-1.42;86.16;98423.59;1769961;79;21034;-77
2022/01/30 10:28:31;;;;;;;4.53;3.15;;;;;;;-1.37;86.18;98429.77;1776392;78;21775;-76
2022/01/30 10:31:05;;;;;;;5.95;4.20;;;;;;;-1.33;86.18;98423.50;1770857;79;21082;-75
2022/01/30 10:33:52;;;;;;;6.87;5.15;;;;;;;-1.29;86.26;98418.02;1769822;79;21402;-75
2022/01/30 10:36:23;;;;;;;6.40;4.20;;;;;;;-1.22;86.30;98428.83;1782859;79;21016;-74
2022/01/30 10:39:06;;;;;;;7.20;4.28;;;;;;;-1.17;86.32;98421.13;1771747;79;21383;-74
2022/01/30 10:41:37;;;;;;;7.67;4.80;;;;;;;-1.11;86.32;98424.27;1771237;79;21839;-74
2022/01/30 10:44:08;;;;;;;6.83;4.45;;;;;;;-1.06;86.34;98427.39;1798527;78;20886;-74
2022/01/30 10:46:44;;;;;;;7.25;4.95;;;;;;;-1.03;86.35;98413.80;1800173;79;20948;-74
2022/01/30 10:49:20;;;;;;;8.38;5.33;;;;;;;-1.01;86.33;98407.22;1732724;81;21061;-74
2022/01/30 10:52:01;;;;;;;7.62;5.45;;;;;;;-0.97;86.33;98406.08;1762759;79;21539;-74
2022/01/30 10:54:33;;;;;;;10.15;5.85;;;;;;;-0.91;86.41;98398.75;1771316;81;21823;-74
2022/01/30 10:57:05;;;;;;;6.78;5.10;;;;;;;-0.86;86.36;98402.36;1773685;79;21018;-75
2022/01/30 10:59:33;;;;;;;4.33;3.62;;;;;;;-0.79;86.39;98382.88;1773124;79;21050;-74
2022/01/30 11:02:16;;;;;;;11.50;7.58;;;;;;;-0.71;86.38;98383.20;1774908;79;21027;-74
2022/01/30 11:04:44;;;;;;;5.87;4.30;;;;;;;-0.65;86.42;98376.34;1771773;79;20999;-74
2022/01/30 11:07:11;;;;;;;6.72;4.05;;;;;;;-0.58;86.37;98370.27;1771115;79;21903;-74
2022/01/30 11:09:42;;;;;;;5.45;4.00;;;;;;;-0.54;86.32;98374.33;1783649;79;21008;-74
2022/01/30 11:12:11;;;;;;;6.10;4.10;;;;;;;-0.51;86.16;98370.23;1773902;79;21071;-74
2022/01/30 11:17:20;;;;;;;4.58;3.72;;;;;;;-0.42;86.00;98364.91;1772094;79;21051;-74
2022/01/30 11:19:51;;;;;;;5.35;3.75;;;;;;;-0.37;85.99;98364.97;1788605;79;21439;-73
2022/01/30 11:22:20;;;;;;;4.70;3.80;;;;;;;-0.33;85.90;98354.74;1794268;78;21341;-72
2022/01/30 11:25:02;;;;;;;6.92;4.60;;;;;;;-0.28;85.84;98359.64;1786872;79;20964;-73
2022/01/30 11:27:29;;;;;;;5.97;4.25;;;;;;;-0.25;85.73;98360.72;1763667;79;21011;-73
2022/01/30 11:29:55;;;;;;;8.25;4.95;;;;;;;-0.22;85.67;98350.59;1785617;79;21062;-72
2022/01/30 11:32:22;;;;;;;9.58;5.65;;;;;;;-0.17;85.64;98355.84;1794503;77;22209;-71
2022/01/30 11:34:49;;;;;;;8.78;6.10;;;;;;;-0.09;85.73;98341.89;1751273;81;21080;-68
2022/01/30 11:37:17;;;;;;;12.43;8.20;;;;;;;-0.01;85.68;98344.77;1783011;79;20941;-69
2022/01/30 11:39:47;;;;;;;8.85;5.92;;;;;;;0.06;85.55;98339.16;1786896;79;21483;-71
2022/01/30 11:42:21;;;;;;;6.37;4.85;;;;;;;0.13;85.53;98346.42;1799994;78;20930;-70
2022/01/30 11:44:49;;;;;;;6.17;4.40;;;;;;;0.20;85.44;98340.35;1782239;79;22535;-70
2022/01/30 11:47:18;;;;;;;5.67;4.15;;;;;;;0.27;85.18;98335.90;1800757;79;20945;-72
2022/01/30 11:49:55;;;;;;;6.83;4.20;;;;;;;0.38;85.21;98335.61;1787450;79;21110;-72
2022/01/30 11:52:47;;;;;;;6.05;4.05;;;;;;;0.46;85.05;98334.61;1782782;79;21464;-73
2022/01/30 11:55:42;;;;;;;5.58;4.00;;;;;;;0.50;84.45;98329.58;1803697;79;20933;-72
2022/01/30 11:58:35;;;;;;;5.62;3.70;;;;;;;0.54;83.96;98327.94;1808268;79;21838;-72
2022/01/30 12:01:23;;;;;;;4.25;3.50;;;;;;;0.63;83.63;98326.92;1766179;80;21415;-73
2022/01/30 12:04:02;;;;;;;5.12;3.72;;;;;;;0.83;83.59;98322.42;1779007;80;20993;-72
2022/01/30 12:06:36;;;;;;;8.58;5.50;;;;;;;0.98;83.13;98314.83;1785645;79;21067;-71
2022/01/30 12:09:20;;;;;;;6.12;3.47;;;;;;;1.01;82.39;98322.39;1789145;79;20950;-73
2022/01/30 12:11:51;;;;;;;6.65;3.87;;;;;;;0.98;81.69;98314.83;1807277;79;21824;-71
2022/01/30 12:14:26;;;;;;;4.97;3.72;;;;;;;0.95;80.61;98314.20;1769803;80;21380;-70
2022/01/30 12:17:00;;;;;;;7.15;4.10;;;;;;;1.01;80.24;98314.59;1784081;79;21142;-73
2022/01/30 12:19:39;;;;;;;4.97;3.67;;;;;;;1.07;79.53;98325.85;1785014;79;21075;-72
2022/01/30 12:22:29;;;;;;;6.08;4.10;;;;;;;1.06;78.42;98335.04;1780693;80;21020;-73
2022/01/30 12:25:21;;;;;;;7.12;5.10;;;;;;;1.01;77.98;98322.86;1782590;79;21880;-73
2022/01/30 12:27:54;;;;;;;6.40;4.87;;;;;;;1.01;77.39;98330.19;1804210;78;21003;-72
2022/01/30 12:30:32;;;;;;;6.67;4.47;;;;;;;1.00;77.14;98334.20;1798067;79;20992;-76
2022/01/30 12:32:59;;;;;;;16.95;9.13;;;;;;;1.00;76.35;98340.23;1782678;79;21034;-73
2022/01/30 12:35:25;;;;;;;8.78;4.83;;;;;;;1.05;76.29;98335.51;1781240;79;20932;-73
2022/01/30 12:37:52;;;;;;;7.87;5.35;;;;;;;1.17;75.70;98335.58;1750760;79;22620;-73
2022/01/30 12:40:20;;;;;;;10.15;6.50;;;;;;;1.33;75.20;98333.02;1780442;80;20912;-73
2022/01/30 12:42:47;;;;;;;10.18;6.92;;;;;;;1.51;75.21;98327.39;1780839;79;20948;-73
2022/01/30 12:45:14;;;;;;;6.97;4.65;;;;;;;1.67;74.59;98323.52;1780630;79;20996;-73
2022/01/30 12:47:56;;;;;;;8.55;4.83;;;;;;;1.85;74.30;98316.57;1781658;79;21042;-73
2022/01/30 12:50:31;;;;;;;11.38;6.80;;;;;;;1.98;73.42;98319.41;1774798;80;21424;-73